Twin Hills, Oklahoma
Current Conditions -  °F | °C
As of 9:55 AM on Monday 24 Nov 2014 (Local Time) from KOKM Reporting Station
Clear Clear  
Wind Chill: 39°   Ceiling: Unl
Heat Index: 46°   Visibility: 10mi
Dew Point: 29°   Wind: 14mph
Humidity: 53%   Direction: 270°W
Pressure: 29.94"   Gusts: 22mph
Location:  35.6454°N, 96.0285°W
Report Text: KOKM 241555Z AUTO 27012G19KT 10SM CLR 08/M01 A2994 RMK AO2 T00761015
Loading
Personal Weather Stations






























Interactive Weather Map New forecast layout! Learn more

10-Day Weather Forecast

Advertisements
Track Severe Weather on mobile